createdAt,value
2023-04-19T00:14:18.403Z,100.00
2023-04-19T00:17:09.286Z,100.00
2023-04-19T00:54:46.386Z,100.00
2023-04-19T01:03:29.900Z,100.00
2023-04-19T01:05:57.844Z,100.00
2023-04-19T01:08:27.328Z,100.00
2023-04-19T01:10:57.827Z,100.00
2023-04-19T01:13:27.467Z,100.00
2023-04-19T01:15:55.763Z,100.00
2023-04-19T02:02:39.324Z,99.34
2023-04-19T02:05:08.241Z,100.00
2023-04-19T02:48:10.356Z,100.00
2023-04-19T02:50:38.929Z,100.00
2023-04-19T02:53:06.330Z,100.00
2023-04-19T02:55:33.681Z,100.00
2023-04-19T02:58:03.818Z,100.00
2023-04-19T03:00:34.240Z,100.00
2023-04-19T03:03:04.325Z,100.00
2023-04-19T03:05:32.137Z,100.00
2023-04-19T03:08:35.773Z,100.00
2023-04-19T03:11:12.014Z,100.00
2023-04-19T04:44:12.482Z,100.00
2023-04-19T04:47:31.859Z,100.00
2023-04-19T04:50:02.525Z,100.00
2023-04-19T04:52:49.452Z,100.00
2023-04-19T04:55:16.725Z,100.00
2023-04-19T04:57:46.792Z,100.00
2023-04-19T05:00:17.974Z,100.00
2023-04-19T05:02:48.911Z,100.00
2023-04-19T05:05:16.094Z,100.00
2023-04-19T05:07:43.217Z,100.00
2023-04-19T05:10:10.442Z,100.00
2023-04-19T05:12:39.481Z,99.96
2023-04-19T05:20:57.082Z,98.24
2023-04-19T05:26:15.732Z,100.00
2023-04-19T05:28:43.836Z,100.00
2023-04-19T05:31:14.423Z,99.89
2023-04-19T05:33:42.366Z,100.00
2023-04-19T05:39:08.686Z,97.98
2023-04-19T05:41:39.045Z,97.45
2023-04-19T06:14:09.424Z,92.88
2023-04-19T06:16:36.777Z,94.12
2023-04-19T06:19:54.309Z,91.36
2023-04-19T06:22:32.640Z,92.21
2023-04-19T06:25:05.869Z,87.93
2023-04-19T06:27:59.712Z,87.96
2023-04-19T06:31:29.117Z,86.69
2023-04-19T06:39:22.470Z,84.44
2023-04-19T06:56:04.596Z,77.55
2023-04-19T06:58:41.296Z,79.55
2023-04-19T07:01:09.394Z,78.79
2023-04-19T07:06:40.312Z,77.36
2023-04-19T07:09:08.819Z,79.54
2023-04-19T07:11:38.719Z,78.23
2023-04-19T07:14:10.501Z,79.05
2023-04-19T07:24:23.360Z,80.28
2023-04-19T07:27:14.871Z,80.04
2023-04-19T07:32:32.896Z,79.57
2023-04-19T07:34:59.894Z,78.87
2023-04-19T07:37:26.794Z,77.11
2023-04-19T07:39:53.680Z,77.06
2023-04-19T07:42:20.457Z,76.95
2023-04-19T07:44:49.489Z,76.67
2023-04-19T07:47:16.278Z,75.63
2023-04-19T07:49:44.691Z,76.80
2023-04-19T07:52:11.623Z,78.19
2023-04-19T07:54:39.750Z,78.13
2023-04-19T07:57:09.319Z,76.90
2023-04-19T07:59:36.145Z,74.62
2023-04-19T08:02:03.149Z,73.88
2023-04-19T08:04:30.318Z,73.42
2023-04-19T08:06:57.335Z,72.66
2023-04-19T08:09:26.641Z,73.32
2023-04-19T08:11:53.716Z,72.97
2023-04-19T08:14:34.537Z,70.07
2023-04-19T08:17:24.049Z,68.59
2023-04-19T08:19:52.529Z,65.61
2023-04-19T08:22:20.668Z,68.96
2023-04-19T08:24:52.189Z,70.43
2023-04-19T08:27:19.514Z,66.80
2023-04-19T08:29:47.452Z,67.50
2023-04-19T08:32:14.341Z,65.76
2023-04-19T08:34:41.253Z,61.60
2023-04-19T08:37:08.112Z,61.88
2023-04-19T08:39:35.476Z,59.40
2023-04-19T08:42:13.308Z,61.24
2023-04-19T08:45:25.467Z,57.04
2023-04-19T08:47:58.957Z,56.27
2023-04-19T08:50:34.404Z,57.52
2023-04-19T08:53:20.931Z,53.89
2023-04-19T08:56:06.892Z,56.48
2023-04-19T08:58:54.962Z,56.74
2023-04-19T09:04:07.363Z,57.01
2023-04-19T09:06:44.632Z,53.50
2023-04-19T09:11:56.712Z,54.96
2023-04-19T09:14:40.085Z,53.75
2023-04-19T09:17:18.301Z,48.19
2023-04-19T09:19:50.407Z,50.90
2023-04-19T09:22:27.412Z,48.33
2023-04-19T09:27:37.514Z,45.67
2023-04-19T09:30:07.289Z,46.04
2023-04-19T09:32:52.306Z,46.89
2023-04-19T09:38:06.967Z,43.88
2023-04-19T09:40:34.790Z,42.01
2023-04-19T09:43:23.139Z,41.96
2023-04-19T09:45:50.443Z,42.77
2023-04-19T09:48:20.771Z,42.87
2023-04-19T09:51:00.671Z,42.30
2023-04-19T09:53:35.155Z,41.28
2023-04-19T09:56:04.661Z,42.96
2023-04-19T09:58:46.341Z,41.77
2023-04-19T10:01:19.358Z,42.40
2023-04-19T10:03:50.372Z,42.76
2023-04-19T10:08:51.472Z,44.86
2023-04-19T10:11:22.302Z,45.73
2023-04-19T10:13:51.928Z,46.47
2023-04-19T10:16:20.398Z,47.37
2023-04-19T10:18:54.554Z,47.82
2023-04-19T10:21:22.365Z,45.79
2023-04-19T10:23:55.882Z,46.92
2023-04-19T10:26:32.164Z,47.45
2023-04-19T10:29:02.165Z,48.81
2023-04-19T10:31:52.589Z,47.69
2023-04-19T10:34:44.597Z,47.27
2023-04-19T10:37:12.224Z,47.48
2023-04-19T10:39:45.518Z,47.76
2023-04-19T10:42:14.722Z,46.15
2023-04-19T10:44:42.120Z,43.67
2023-04-19T10:47:14.663Z,44.85
2023-04-19T10:49:47.907Z,46.65
2023-04-19T10:52:29.914Z,45.57
2023-04-19T10:54:57.232Z,46.26
2023-04-19T10:57:25.587Z,45.69
2023-04-19T11:00:22.790Z,47.05
2023-04-19T11:03:03.198Z,47.96
2023-04-19T11:05:30.939Z,47.99
2023-04-19T11:07:58.135Z,47.90
2023-04-19T11:10:31.211Z,48.20
2023-04-19T11:12:58.731Z,48.11
2023-04-19T11:15:26.370Z,47.15
2023-04-19T11:18:08.775Z,45.92
2023-04-19T11:20:39.122Z,45.42
2023-04-19T11:26:14.869Z,43.23
2023-04-19T11:28:41.773Z,45.21
2023-04-19T11:31:08.724Z,46.75
2023-04-19T11:33:42.064Z,46.60
2023-04-19T11:36:15.110Z,47.02
2023-04-19T11:38:45.068Z,47.48
2023-04-19T11:41:14.956Z,48.05
2023-04-19T11:43:45.580Z,50.55
2023-04-19T11:46:13.930Z,51.42
2023-04-19T11:48:56.931Z,53.18
2023-04-19T11:51:23.947Z,54.34
2023-04-19T11:53:53.570Z,55.32
2023-04-19T11:56:20.500Z,54.90
2023-04-19T11:58:51.431Z,54.75
2023-04-19T12:01:22.435Z,54.35
2023-04-19T12:03:54.531Z,54.70
2023-04-19T12:06:27.493Z,57.61
2023-04-19T12:08:55.706Z,58.70
2023-04-19T12:11:41.802Z,60.05
2023-04-19T12:14:13.992Z,58.81
2023-04-19T12:16:41.833Z,56.85
2023-04-19T12:19:19.129Z,56.85
2023-04-19T12:21:47.204Z,54.15
2023-04-19T12:24:25.139Z,55.26
2023-04-19T12:27:06.218Z,55.31
2023-04-19T12:32:47.116Z,62.06
2023-04-19T12:35:14.042Z,64.88
2023-04-19T12:37:50.277Z,67.78
2023-04-19T12:40:18.768Z,73.38
2023-04-19T12:42:49.170Z,76.20
2023-04-19T12:45:19.470Z,75.12
2023-04-19T12:47:51.051Z,77.03
2023-04-19T12:50:18.380Z,80.18
2023-04-19T12:52:45.821Z,75.49
2023-04-19T12:55:12.905Z,74.14
2023-04-19T12:57:40.141Z,72.83
2023-04-19T13:00:07.762Z,69.41
2023-04-19T13:02:44.122Z,69.25
2023-04-19T13:15:59.563Z,60.80
2023-04-19T13:18:45.458Z,59.70
2023-04-19T13:21:12.840Z,60.27
2023-04-19T13:23:39.722Z,55.98
2023-04-19T13:26:18.319Z,54.82
2023-04-19T13:28:45.317Z,54.14
2023-04-19T13:31:12.358Z,53.68
2023-04-19T13:33:39.281Z,54.35
2023-04-19T13:36:06.661Z,51.41
2023-04-19T13:38:33.505Z,50.87
2023-04-19T13:41:01.112Z,47.97
2023-04-19T13:43:27.954Z,47.94
2023-04-19T13:45:54.626Z,48.79
2023-04-19T13:48:21.815Z,49.64
2023-04-19T13:50:50.957Z,49.93
2023-04-19T13:53:18.232Z,50.63
2023-04-19T13:55:45.190Z,48.05
2023-04-19T13:58:12.398Z,48.13
2023-04-19T14:00:39.695Z,47.28
2023-04-19T14:03:06.746Z,47.97
2023-04-19T14:05:33.721Z,49.74
2023-04-19T14:08:02.981Z,50.64
2023-04-19T14:10:30.003Z,51.19
2023-04-19T14:12:56.770Z,51.24
2023-04-19T14:15:24.278Z,48.66
2023-04-19T14:17:51.629Z,49.24
2023-04-19T14:20:18.969Z,49.64
2023-04-19T14:22:46.778Z,49.73
2023-04-19T14:25:23.649Z,51.15
2023-04-19T14:27:50.547Z,53.46
2023-04-19T14:30:17.576Z,62.24
2023-04-19T14:32:44.706Z,64.67
2023-04-19T14:35:12.172Z,60.85
2023-04-19T14:37:39.264Z,56.73
2023-04-19T14:40:09.553Z,57.45
2023-04-19T14:42:36.371Z,55.04
2023-04-19T14:45:03.475Z,56.40
2023-04-19T14:47:30.891Z,54.02
2023-04-19T14:49:57.747Z,55.31
2023-04-19T14:52:25.861Z,54.89
2023-04-19T14:54:52.991Z,54.43
2023-04-19T14:57:20.353Z,55.33
2023-04-19T14:59:49.741Z,53.57
2023-04-19T15:02:17.097Z,52.74
2023-04-19T15:04:44.003Z,51.05
2023-04-19T15:07:10.799Z,50.17
2023-04-19T15:09:37.921Z,49.98
2023-04-19T15:12:04.826Z,49.99
2023-04-19T15:14:31.618Z,51.82
2023-04-19T15:16:58.614Z,50.91
2023-04-19T15:19:28.015Z,49.68
2023-04-19T15:21:57.720Z,49.86
2023-04-19T15:24:27.053Z,48.70
2023-04-19T15:26:53.804Z,47.07
2023-04-19T15:29:20.602Z,47.34
2023-04-19T15:31:47.581Z,47.11
2023-04-19T15:34:14.329Z,47.69
2023-04-19T15:36:41.136Z,48.79
2023-04-19T15:39:08.068Z,48.27
2023-04-19T15:41:35.686Z,49.28
2023-04-19T15:44:02.366Z,48.45
2023-04-19T15:46:29.354Z,48.74
2023-04-19T15:48:57.394Z,49.37
2023-04-19T15:51:38.454Z,49.49
2023-04-19T15:54:07.322Z,49.45
2023-04-19T15:56:37.308Z,49.25
2023-04-19T15:59:04.072Z,49.13
2023-04-19T16:01:30.999Z,49.44
2023-04-19T16:06:39.614Z,49.39
2023-04-19T16:09:09.783Z,49.16
2023-04-19T16:11:52.456Z,49.50
2023-04-19T16:14:19.594Z,50.34
2023-04-19T16:16:46.310Z,50.03
2023-04-19T16:19:15.991Z,49.21
2023-04-19T16:21:46.316Z,49.10
2023-04-19T16:24:20.508Z,49.01
2023-04-19T16:26:48.665Z,49.18
2023-04-19T16:29:15.798Z,49.82
2023-04-19T16:31:42.758Z,49.29
2023-04-19T16:34:09.626Z,48.76
2023-04-19T16:36:36.643Z,49.50
2023-04-19T16:39:04.187Z,48.87
2023-04-19T16:41:31.214Z,48.80
2023-04-19T16:43:57.936Z,49.97
2023-04-19T16:46:27.658Z,49.68
2023-04-19T16:49:02.091Z,50.24
2023-04-19T16:51:31.365Z,50.18
2023-04-19T16:53:58.214Z,50.96
2023-04-19T16:56:29.258Z,51.34
2023-04-19T16:58:57.554Z,51.24
2023-04-19T17:01:24.333Z,51.88
2023-04-19T17:03:51.491Z,52.13
2023-04-19T17:06:18.579Z,51.87
2023-04-19T17:08:45.542Z,51.95
2023-04-19T17:11:12.405Z,52.17
2023-04-19T17:13:39.981Z,52.89
2023-04-19T17:16:07.427Z,52.46
2023-04-19T17:18:34.433Z,52.64
2023-04-19T17:21:01.417Z,53.17
2023-04-19T17:23:28.212Z,53.92
2023-04-19T17:25:58.423Z,54.28
2023-04-19T17:28:25.346Z,54.68
2023-04-19T17:30:52.318Z,54.90
2023-04-19T17:33:21.520Z,54.71
2023-04-19T17:35:48.258Z,54.20
2023-04-19T17:38:15.016Z,55.19
2023-04-19T17:40:42.094Z,55.89
2023-04-19T17:43:11.133Z,56.53
2023-04-19T17:45:38.100Z,55.26
2023-04-19T17:48:05.396Z,55.82
2023-04-19T17:50:38.611Z,55.70
2023-04-19T17:53:05.617Z,56.08
2023-04-19T17:55:33.216Z,56.54
2023-04-19T17:58:00.351Z,57.58
2023-04-19T18:00:27.432Z,58.62
2023-04-19T18:02:56.425Z,58.79
2023-04-19T18:05:30.722Z,60.48
2023-04-19T18:08:09.286Z,61.48
2023-04-19T18:10:38.122Z,61.42
2023-04-19T18:13:05.128Z,62.07
2023-04-19T18:15:31.919Z,61.97
2023-04-19T18:17:58.773Z,61.29
2023-04-19T18:20:25.830Z,61.10
2023-04-19T18:22:53.783Z,61.79
2023-04-19T18:25:23.306Z,61.96
2023-04-19T18:27:51.244Z,63.53
2023-04-19T18:30:18.341Z,63.60
2023-04-19T18:32:48.563Z,64.30
2023-04-19T18:35:15.514Z,65.13
2023-04-19T18:37:44.973Z,65.59
2023-04-19T18:40:12.643Z,66.71
2023-04-19T18:42:42.514Z,67.15
2023-04-19T18:45:15.061Z,67.87
2023-04-19T18:47:42.315Z,67.73
2023-04-19T18:50:15.992Z,67.29
2023-04-19T18:52:46.044Z,68.05
2023-04-19T18:55:13.966Z,68.18
2023-04-19T18:57:43.378Z,68.31
2023-04-19T19:00:11.705Z,68.45
2023-04-19T19:02:45.010Z,69.84
2023-04-19T19:05:14.122Z,69.27
2023-04-19T19:07:42.252Z,68.59
2023-04-19T19:10:19.122Z,68.45
2023-04-19T19:12:49.319Z,68.72
2023-04-19T19:15:16.990Z,69.11
2023-04-19T19:17:49.389Z,69.75
2023-04-19T19:20:17.065Z,69.22
2023-04-19T19:22:44.337Z,67.79
2023-04-19T19:25:12.146Z,67.76
2023-04-19T19:27:39.045Z,67.19
2023-04-19T19:30:07.988Z,66.88
2023-04-19T19:32:35.082Z,67.06
2023-04-19T19:35:07.374Z,67.39
2023-04-19T19:37:38.278Z,66.94
2023-04-19T19:40:11.095Z,66.10
2023-04-19T19:42:41.358Z,65.95
2023-04-19T19:45:09.538Z,66.14
2023-04-19T19:47:44.409Z,65.77
2023-04-19T19:51:01.083Z,66.49
2023-04-19T19:53:02.357Z,67.01
2023-04-19T19:55:31.102Z,67.42
2023-04-19T20:00:47.957Z,67.23
2023-04-19T20:03:28.808Z,67.35
2023-04-19T20:06:35.670Z,66.96
2023-04-19T20:08:57.141Z,67.72
2023-04-19T20:11:25.481Z,67.69
2023-04-19T20:13:52.805Z,68.11
2023-04-19T20:16:23.984Z,69.15
2023-04-19T20:18:55.147Z,69.42
2023-04-19T20:21:22.066Z,68.46
2023-04-19T20:26:43.388Z,66.66
2023-04-19T20:29:13.198Z,66.79
2023-04-19T20:31:46.582Z,66.11
2023-04-19T20:34:19.733Z,66.07
2023-04-19T20:36:54.580Z,65.67
2023-04-19T20:39:21.730Z,67.13
2023-04-19T20:41:54.495Z,68.01
2023-04-19T20:49:51.430Z,71.26
2023-04-19T20:52:18.646Z,72.59
2023-04-19T20:54:46.553Z,71.75
2023-04-19T20:57:16.264Z,73.30
2023-04-19T20:59:44.988Z,73.37
2023-04-19T21:02:12.213Z,74.46
2023-04-19T21:04:42.155Z,75.63
2023-04-19T21:07:36.099Z,76.64
2023-04-19T21:10:17.691Z,76.92
2023-04-19T21:12:46.356Z,76.68
2023-04-19T21:15:13.890Z,75.14
2023-04-19T21:17:41.461Z,75.17
2023-04-19T21:20:12.543Z,75.81
2023-04-19T21:22:45.486Z,76.74
2023-04-19T21:28:03.972Z,77.09
2023-04-19T21:35:59.503Z,80.17
2023-04-19T21:38:27.553Z,79.72
2023-04-19T21:40:54.504Z,78.68
2023-04-19T21:43:22.712Z,79.10
2023-04-19T21:45:49.538Z,79.65
2023-04-19T21:48:16.559Z,80.09
2023-04-19T21:50:43.256Z,79.54
2023-04-19T21:53:12.725Z,81.64
2023-04-19T21:55:39.468Z,82.69
2023-04-19T21:58:07.668Z,81.72
2023-04-19T22:00:50.000Z,82.71
2023-04-19T22:03:17.388Z,84.22
2023-04-19T22:05:48.857Z,83.43
2023-04-19T22:08:18.306Z,84.04
2023-04-19T22:13:31.779Z,86.00
2023-04-19T22:16:01.699Z,85.72
2023-04-19T22:18:38.240Z,84.36
2023-04-19T22:21:08.840Z,83.08
2023-04-19T22:23:36.553Z,83.47
2023-04-19T22:26:04.375Z,85.06
2023-04-19T22:28:31.475Z,85.18
2023-04-19T22:30:58.463Z,85.74
2023-04-19T22:33:28.175Z,86.63
2023-04-19T22:35:54.960Z,85.19
2023-04-19T22:38:22.140Z,84.15
2023-04-19T22:40:48.985Z,84.44
2023-04-19T22:43:16.525Z,84.83
2023-04-19T22:45:48.167Z,83.52
2023-04-19T22:48:15.543Z,82.96
2023-04-19T22:50:43.690Z,83.21
2023-04-19T22:53:13.323Z,81.78
2023-04-19T22:55:44.436Z,80.77
2023-04-19T22:58:17.058Z,82.33
2023-04-19T23:00:44.086Z,82.25
2023-04-19T23:03:11.199Z,82.31
2023-04-19T23:05:38.343Z,82.37
2023-04-19T23:08:05.420Z,83.68
2023-04-19T23:10:32.409Z,82.62
2023-04-19T23:12:59.676Z,81.89
2023-04-19T23:15:28.739Z,83.25
2023-04-19T23:17:56.232Z,81.47
2023-04-19T23:20:23.684Z,81.94
2023-04-19T23:22:50.666Z,82.29
2023-04-19T23:25:17.789Z,82.72
2023-04-19T23:27:44.969Z,84.70
2023-04-19T23:30:12.197Z,84.11
2023-04-19T23:32:39.248Z,85.05
2023-04-19T23:35:06.803Z,84.49
2023-04-19T23:37:33.662Z,85.41
2023-04-19T23:40:08.405Z,84.99
2023-04-19T23:42:36.996Z,83.68
2023-04-19T23:45:04.786Z,84.06
2023-04-19T23:47:31.824Z,84.65
2023-04-19T23:49:58.651Z,84.87
2023-04-19T23:52:27.812Z,87.33
2023-04-19T23:54:54.577Z,86.26
2023-04-19T23:57:21.576Z,87.12
2023-04-19T23:59:48.930Z,86.50
